createdAt,value
2022-12-13T00:01:34.546Z,87.09
2022-12-13T00:04:04.547Z,86.74
2022-12-13T00:06:32.605Z,86.59
2022-12-13T00:09:00.613Z,86.69
2022-12-13T00:11:28.299Z,87.27
2022-12-13T00:13:55.542Z,86.85
2022-12-13T00:16:24.754Z,86.61
2022-12-13T00:18:55.686Z,86.19
2022-12-13T00:21:24.854Z,86.10
2022-12-13T00:23:52.035Z,86.39
2022-12-13T00:26:31.129Z,87.02
2022-12-13T00:29:06.308Z,86.43
2022-12-13T00:34:20.652Z,85.65
2022-12-13T00:36:48.459Z,86.84
2022-12-13T00:39:16.919Z,86.39
2022-12-13T00:41:45.142Z,85.58
2022-12-13T00:44:13.672Z,85.67
2022-12-13T00:46:42.337Z,84.89
2022-12-13T00:49:11.170Z,85.69
2022-12-13T00:51:38.080Z,85.44
2022-12-13T00:54:05.742Z,85.50
2022-12-13T00:56:33.557Z,85.41
2022-12-13T00:59:00.863Z,84.87
2022-12-13T01:01:31.243Z,85.70
2022-12-13T01:04:00.955Z,84.68
2022-12-13T01:06:55.396Z,84.08
2022-12-13T01:09:31.196Z,85.38
2022-12-13T01:11:59.998Z,84.15
2022-12-13T01:14:27.357Z,85.12
2022-12-13T01:16:57.441Z,84.34
2022-12-13T01:19:26.607Z,84.36
2022-12-13T01:22:04.502Z,85.22
2022-12-13T01:24:32.174Z,85.25
2022-12-13T01:26:59.304Z,84.62
2022-12-13T01:29:27.865Z,85.53
2022-12-13T01:31:54.964Z,85.41
2022-12-13T01:34:26.564Z,84.79
2022-12-13T01:36:58.515Z,85.23
2022-12-13T01:39:27.242Z,86.10
2022-12-13T01:41:59.874Z,87.10
2022-12-13T01:45:01.467Z,86.40
2022-12-13T01:47:43.885Z,84.57
2022-12-13T01:50:17.266Z,85.02
2022-12-13T01:52:46.162Z,85.23
2022-12-13T01:55:17.195Z,85.68
2022-12-13T01:57:48.914Z,85.74
2022-12-13T02:00:16.603Z,84.59
2022-12-13T02:02:44.743Z,85.46
2022-12-13T02:05:36.577Z,85.35
2022-12-13T02:08:22.526Z,85.18
2022-12-13T02:11:09.366Z,85.30
2022-12-13T02:13:50.885Z,84.73
2022-12-13T02:17:06.032Z,85.26
2022-12-13T02:20:06.009Z,84.36
2022-12-13T02:23:16.563Z,84.62
2022-12-13T02:26:16.962Z,85.31
2022-12-13T02:29:31.207Z,84.14
2022-12-13T02:32:04.353Z,84.65
2022-12-13T02:35:00.252Z,84.33
2022-12-13T02:37:38.869Z,84.22
2022-12-13T02:40:26.809Z,85.23
2022-12-13T02:43:07.090Z,84.56
2022-12-13T02:45:48.080Z,84.27
2022-12-13T02:48:21.730Z,85.41
2022-12-13T02:50:50.189Z,84.81
2022-12-13T02:53:18.275Z,84.07
2022-12-13T02:55:45.305Z,84.31
2022-12-13T02:58:14.344Z,84.80
2022-12-13T03:01:02.377Z,83.93
2022-12-13T03:04:01.099Z,84.97
2022-12-13T03:06:55.065Z,84.62
2022-12-13T03:09:40.087Z,83.88
2022-12-13T03:12:47.142Z,84.62
2022-12-13T03:15:19.665Z,85.92
2022-12-13T03:17:53.058Z,84.18
2022-12-13T03:20:25.509Z,84.22
2022-12-13T03:22:54.126Z,84.16
2022-12-13T03:25:31.691Z,84.59
2022-12-13T03:28:01.397Z,85.11
2022-12-13T03:30:28.999Z,86.09
2022-12-13T03:32:55.936Z,85.67
2022-12-13T03:35:23.189Z,85.24
2022-12-13T03:37:50.921Z,85.41
2022-12-13T03:40:19.916Z,85.24
2022-12-13T03:42:47.421Z,84.64
2022-12-13T03:45:14.543Z,85.28
2022-12-13T03:47:41.589Z,85.42
2022-12-13T03:50:26.315Z,84.72
2022-12-13T03:53:02.172Z,85.98
2022-12-13T03:55:29.585Z,85.83
2022-12-13T03:57:56.953Z,84.56
2022-12-13T04:00:24.063Z,85.20
2022-12-13T04:02:51.202Z,84.76
2022-12-13T04:05:18.486Z,84.88
2022-12-13T04:07:48.547Z,85.07
2022-12-13T04:10:26.124Z,84.37
2022-12-13T04:13:13.709Z,84.09
2022-12-13T04:15:41.040Z,84.33
2022-12-13T04:18:08.019Z,85.49
2022-12-13T04:20:34.971Z,84.96
2022-12-13T04:23:10.196Z,84.41
2022-12-13T04:25:38.672Z,86.22
2022-12-13T04:28:06.055Z,86.32
2022-12-13T04:30:34.095Z,85.61
2022-12-13T04:33:01.347Z,87.03
2022-12-13T04:35:28.717Z,86.13
2022-12-13T04:37:57.227Z,86.24
2022-12-13T04:40:24.434Z,85.79
2022-12-13T04:42:54.049Z,85.94
2022-12-13T04:45:22.949Z,84.96
2022-12-13T04:47:50.127Z,85.28
2022-12-13T04:50:17.483Z,84.63
2022-12-13T04:52:45.189Z,84.99
2022-12-13T04:55:13.197Z,85.22
2022-12-13T04:57:45.693Z,84.41
2022-12-13T05:00:16.332Z,84.89
2022-12-13T05:02:43.308Z,84.07
2022-12-13T05:05:12.868Z,84.74
2022-12-13T05:07:42.138Z,84.51
2022-12-13T05:10:11.465Z,83.29
2022-12-13T05:12:38.812Z,83.77
2022-12-13T05:15:07.362Z,84.20
2022-12-13T05:17:34.819Z,84.23
2022-12-13T05:20:01.780Z,84.88
2022-12-13T05:22:28.720Z,83.75
2022-12-13T05:24:55.704Z,84.58
2022-12-13T05:27:25.326Z,83.98
2022-12-13T05:30:03.189Z,84.38
2022-12-13T05:32:43.198Z,84.05
2022-12-13T05:35:22.845Z,83.68
2022-12-13T05:37:55.295Z,84.77
2022-12-13T05:40:27.729Z,85.38
2022-12-13T05:43:01.224Z,84.29
2022-12-13T05:45:30.541Z,84.69
2022-12-13T05:47:57.752Z,85.59
2022-12-13T05:50:24.966Z,85.01
2022-12-13T05:52:52.648Z,85.48
2022-12-13T05:55:19.910Z,85.26
2022-12-13T05:57:50.109Z,85.98
2022-12-13T06:00:29.084Z,84.83
2022-12-13T06:03:00.511Z,84.12
2022-12-13T06:05:27.975Z,84.70
2022-12-13T06:07:57.403Z,84.52
2022-12-13T06:10:34.390Z,84.74
2022-12-13T06:13:21.004Z,84.39
2022-12-13T06:15:49.753Z,84.15
2022-12-13T06:18:16.757Z,84.41
2022-12-13T06:20:43.677Z,84.73
2022-12-13T06:23:10.584Z,84.35
2022-12-13T06:25:37.962Z,84.52
2022-12-13T06:28:05.156Z,84.85
2022-12-13T06:30:32.269Z,85.96
2022-12-13T06:32:59.284Z,85.07
2022-12-13T06:35:28.989Z,83.76
2022-12-13T06:38:01.374Z,83.76
2022-12-13T06:40:31.730Z,84.50
2022-12-13T06:42:58.695Z,84.32
2022-12-13T06:45:26.204Z,83.43
2022-12-13T06:47:53.205Z,83.51
2022-12-13T06:50:20.184Z,83.36
2022-12-13T06:52:47.638Z,83.53
2022-12-13T06:55:15.043Z,82.98
2022-12-13T06:57:50.656Z,84.27
2022-12-13T07:00:22.253Z,84.06
2022-12-13T07:02:55.196Z,84.20
2022-12-13T07:05:22.718Z,85.16
2022-12-13T07:07:49.924Z,84.08
2022-12-13T07:10:22.956Z,84.02
2022-12-13T07:12:50.288Z,83.28
2022-12-13T07:15:17.426Z,85.09
2022-12-13T07:17:44.467Z,84.32
2022-12-13T07:20:13.774Z,84.07
2022-12-13T07:22:46.972Z,84.68
2022-12-13T07:25:27.525Z,84.64
2022-12-13T07:28:01.285Z,83.62
2022-12-13T07:30:41.665Z,84.20
2022-12-13T07:33:09.753Z,83.28
2022-12-13T07:35:37.659Z,84.91
2022-12-13T07:38:09.241Z,84.30
2022-12-13T07:40:37.958Z,83.32
2022-12-13T07:43:06.039Z,83.99
2022-12-13T07:45:33.376Z,83.52
2022-12-13T07:48:04.904Z,84.52
2022-12-13T07:50:37.466Z,83.53
2022-12-13T07:53:08.636Z,82.92
2022-12-13T07:55:36.879Z,83.09
2022-12-13T07:58:08.623Z,81.87
2022-12-13T08:00:36.523Z,81.81
2022-12-13T08:03:04.098Z,83.00
2022-12-13T08:05:38.585Z,82.10
2022-12-13T08:08:08.723Z,82.11
2022-12-13T08:10:36.438Z,81.96
2022-12-13T08:13:04.217Z,83.15
2022-12-13T08:15:31.304Z,83.27
2022-12-13T08:18:01.215Z,82.82
2022-12-13T08:20:28.229Z,82.02
2022-12-13T08:23:02.023Z,83.67
2022-12-13T08:25:30.773Z,83.87
2022-12-13T08:28:02.121Z,83.92
2022-12-13T08:30:32.447Z,82.04
2022-12-13T08:32:59.760Z,81.54
2022-12-13T08:35:34.582Z,82.79
2022-12-13T08:38:02.045Z,80.54
2022-12-13T08:40:28.948Z,81.90
2022-12-13T08:42:56.269Z,81.21
2022-12-13T08:45:27.221Z,79.92
2022-12-13T08:47:57.217Z,80.36
2022-12-13T08:50:24.225Z,78.91
2022-12-13T08:52:51.897Z,78.06
2022-12-13T08:55:25.002Z,77.19
2022-12-13T08:57:59.071Z,75.04
2022-12-13T09:00:28.230Z,77.77
2022-12-13T09:03:09.934Z,77.21
2022-12-13T09:05:38.163Z,77.15
2022-12-13T09:08:23.692Z,76.53
2022-12-13T09:11:11.402Z,76.53
2022-12-13T09:13:49.130Z,75.94
2022-12-13T09:16:23.574Z,77.23
2022-12-13T09:18:55.555Z,76.33
2022-12-13T09:21:31.757Z,75.88
2022-12-13T09:24:01.905Z,77.23
2022-12-13T09:26:29.400Z,76.43
2022-12-13T09:29:11.335Z,77.21
2022-12-13T09:31:40.823Z,75.62
2022-12-13T09:34:09.276Z,76.18
2022-12-13T09:36:36.245Z,77.15
2022-12-13T09:39:03.571Z,73.32
2022-12-13T09:41:40.780Z,74.79
2022-12-13T09:44:31.521Z,74.68
2022-12-13T09:47:13.412Z,73.49
2022-12-13T09:49:52.307Z,74.14
2022-12-13T09:52:23.733Z,74.46
2022-12-13T09:54:54.123Z,73.67
2022-12-13T09:57:32.418Z,73.48
2022-12-13T10:00:02.890Z,73.69
2022-12-13T10:02:33.055Z,73.34
2022-12-13T10:05:33.878Z,73.10
2022-12-13T10:08:17.129Z,74.30
2022-12-13T10:10:45.294Z,73.66
2022-12-13T10:13:42.927Z,75.18
2022-12-13T10:16:23.586Z,73.50
2022-12-13T10:18:51.210Z,73.24
2022-12-13T10:21:20.033Z,73.26
2022-12-13T10:24:24.661Z,73.42
2022-12-13T10:26:38.384Z,71.32
2022-12-13T10:29:06.859Z,71.62
2022-12-13T10:31:46.054Z,72.06
2022-12-13T10:34:37.392Z,74.80
2022-12-13T10:37:24.538Z,72.50
2022-12-13T10:39:51.456Z,70.80
2022-12-13T10:42:22.150Z,71.99
2022-12-13T10:45:23.138Z,72.77
2022-12-13T10:47:51.311Z,71.75
2022-12-13T10:50:28.918Z,71.59
2022-12-13T10:52:59.066Z,72.19
2022-12-13T10:55:33.487Z,73.62
2022-12-13T10:58:07.635Z,72.71
2022-12-13T11:00:39.266Z,74.12
2022-12-13T11:03:06.805Z,75.85
2022-12-13T11:05:36.198Z,74.63
2022-12-13T11:08:27.045Z,74.87
2022-12-13T11:10:58.643Z,74.12
2022-12-13T11:13:50.922Z,74.27
2022-12-13T11:16:34.299Z,73.71
2022-12-13T11:19:06.112Z,72.88
2022-12-13T11:21:37.055Z,71.81
2022-12-13T11:24:08.919Z,71.69
2022-12-13T11:26:39.449Z,71.68
2022-12-13T11:29:15.322Z,73.16
2022-12-13T11:31:51.420Z,71.41
2022-12-13T11:34:52.625Z,70.20
2022-12-13T11:37:41.429Z,73.71
2022-12-13T11:40:20.689Z,72.90
2022-12-13T11:42:50.914Z,73.68
2022-12-13T11:45:23.881Z,73.16
2022-12-13T11:48:09.198Z,72.99
2022-12-13T11:50:43.817Z,73.20
2022-12-13T11:53:28.347Z,72.25
2022-12-13T11:56:05.334Z,72.88
2022-12-13T12:01:47.765Z,74.03
2022-12-13T12:04:36.985Z,74.41
2022-12-13T12:07:35.436Z,73.94
2022-12-13T12:10:34.873Z,73.87
2022-12-13T12:13:14.251Z,73.86
2022-12-13T12:16:13.434Z,74.55
2022-12-13T12:18:40.502Z,73.74
2022-12-13T12:21:49.168Z,74.05
2022-12-13T12:24:24.878Z,73.91
2022-12-13T12:27:22.628Z,73.41
2022-12-13T12:30:07.717Z,72.35
2022-12-13T12:32:44.322Z,73.75
2022-12-13T12:35:33.346Z,73.67
2022-12-13T12:38:00.217Z,71.30
2022-12-13T12:43:45.304Z,72.26
2022-12-13T12:46:26.068Z,72.31
2022-12-13T12:49:14.185Z,72.57
2022-12-13T12:51:59.952Z,72.05
2022-12-13T12:55:09.544Z,72.78
2022-12-13T12:57:47.549Z,71.38
2022-12-13T13:00:19.050Z,72.62
2022-12-13T13:03:01.669Z,70.78
2022-12-13T13:05:38.167Z,71.97
2022-12-13T13:08:14.534Z,71.22
2022-12-13T13:10:49.780Z,72.69
2022-12-13T13:13:47.421Z,73.93
2022-12-13T13:16:42.357Z,76.18
2022-12-13T13:19:11.979Z,77.14
2022-12-13T13:21:45.120Z,76.07
2022-12-13T13:24:16.879Z,77.71
2022-12-13T13:26:53.993Z,78.34
2022-12-13T13:29:28.353Z,78.01
2022-12-13T13:32:28.579Z,77.66
2022-12-13T13:35:36.408Z,78.14
2022-12-13T13:38:06.118Z,78.13
2022-12-13T13:40:38.766Z,77.47
2022-12-13T13:43:05.586Z,76.11
2022-12-13T13:45:50.909Z,77.72
2022-12-13T13:48:55.135Z,78.17
2022-12-13T13:55:16.550Z,74.93
2022-12-13T13:58:21.696Z,75.51
2022-12-13T14:00:54.849Z,77.19
2022-12-13T14:03:41.178Z,77.96
2022-12-13T14:06:42.358Z,77.95
2022-12-13T14:09:43.182Z,77.02
2022-12-13T14:12:28.057Z,77.74
2022-12-13T14:15:39.747Z,76.06
2022-12-13T14:18:44.509Z,76.81
2022-12-13T14:21:36.053Z,75.44
2022-12-13T14:24:08.784Z,75.40
2022-12-13T14:26:41.049Z,76.62
2022-12-13T14:29:15.953Z,75.61
2022-12-13T14:31:47.188Z,75.30
2022-12-13T14:34:25.858Z,77.03
2022-12-13T14:37:05.035Z,76.27
2022-12-13T14:39:34.945Z,77.36
2022-12-13T14:42:20.718Z,77.26
2022-12-13T14:44:47.929Z,76.12
2022-12-13T14:47:15.066Z,76.09
2022-12-13T14:49:48.978Z,75.75
2022-12-13T14:52:39.838Z,76.73
2022-12-13T14:55:08.491Z,76.37
2022-12-13T14:57:36.501Z,76.03
2022-12-13T15:00:22.956Z,75.40
2022-12-13T15:02:52.575Z,75.51
2022-12-13T15:05:28.818Z,75.76
2022-12-13T15:07:57.162Z,76.28
2022-12-13T15:10:34.165Z,77.04
2022-12-13T15:13:01.043Z,75.99
2022-12-13T15:15:32.655Z,77.24
2022-12-13T15:18:06.610Z,77.25
2022-12-13T15:20:34.303Z,76.81
2022-12-13T15:23:06.270Z,77.02
2022-12-13T15:25:35.213Z,76.57
2022-12-13T15:28:02.386Z,76.52
2022-12-13T15:30:33.447Z,76.12
2022-12-13T15:33:07.535Z,76.86
2022-12-13T15:35:37.108Z,76.82
2022-12-13T15:38:04.600Z,77.43
2022-12-13T15:40:31.609Z,78.37
2022-12-13T15:42:58.965Z,77.15
2022-12-13T15:45:33.324Z,76.05
2022-12-13T15:48:04.894Z,77.32
2022-12-13T15:50:41.006Z,77.77
2022-12-13T15:53:22.455Z,77.02
2022-12-13T15:55:49.621Z,76.64
2022-12-13T15:58:30.094Z,77.45
2022-12-13T16:00:57.287Z,77.47
2022-12-13T16:03:27.132Z,77.58
2022-12-13T16:05:57.435Z,77.55
2022-12-13T16:08:31.612Z,77.84
2022-12-13T16:10:59.480Z,78.01
2022-12-13T16:13:29.993Z,78.10
2022-12-13T16:16:08.579Z,77.32
2022-12-13T16:18:45.590Z,78.37
2022-12-13T16:21:12.621Z,78.61
2022-12-13T16:23:39.524Z,77.80
2022-12-13T16:26:09.118Z,78.52
2022-12-13T16:28:36.512Z,77.71
2022-12-13T16:31:13.561Z,77.82
2022-12-13T16:33:40.488Z,78.00
2022-12-13T16:36:10.165Z,76.86
2022-12-13T16:38:37.429Z,77.70
2022-12-13T16:41:08.585Z,77.76
2022-12-13T16:43:51.159Z,77.94
2022-12-13T16:47:15.463Z,77.03
2022-12-13T16:49:18.686Z,76.76
2022-12-13T16:51:48.501Z,77.18
2022-12-13T16:54:16.240Z,77.38
2022-12-13T16:56:43.770Z,77.79
2022-12-13T16:59:18.997Z,76.55
2022-12-13T17:01:46.237Z,76.96
2022-12-13T17:04:20.061Z,77.54
2022-12-13T17:06:48.369Z,78.33
2022-12-13T17:09:17.096Z,77.50
2022-12-13T17:11:44.099Z,78.02
2022-12-13T17:14:11.047Z,77.25
2022-12-13T17:16:38.031Z,77.78
2022-12-13T17:19:05.060Z,78.00
2022-12-13T17:21:31.955Z,77.27
2022-12-13T17:24:01.792Z,77.71
2022-12-13T17:26:29.373Z,77.80
2022-12-13T17:28:56.607Z,75.90
2022-12-13T17:31:24.044Z,77.26
2022-12-13T17:33:51.003Z,77.16
2022-12-13T17:36:17.986Z,77.14
2022-12-13T17:38:46.853Z,77.06
2022-12-13T17:41:15.116Z,76.39
2022-12-13T17:43:42.984Z,76.42
2022-12-13T17:46:16.354Z,77.01
2022-12-13T17:48:44.359Z,77.50
2022-12-13T17:51:13.215Z,78.28
2022-12-13T17:53:42.277Z,76.60
2022-12-13T17:56:17.852Z,76.92
2022-12-13T17:58:45.527Z,77.19
2022-12-13T18:01:15.200Z,77.30
2022-12-13T18:03:42.908Z,77.00
2022-12-13T18:06:10.037Z,76.77
2022-12-13T18:08:40.664Z,75.69
2022-12-13T18:13:56.350Z,75.69
2022-12-13T18:16:28.904Z,75.72
2022-12-13T18:19:01.239Z,75.50
2022-12-13T18:21:28.245Z,75.12
2022-12-13T18:23:56.292Z,75.70
2022-12-13T18:26:24.814Z,75.29
2022-12-13T18:28:52.436Z,76.17
2022-12-13T18:31:23.548Z,76.93
2022-12-13T18:33:52.675Z,76.30
2022-12-13T18:36:21.292Z,76.52
2022-12-13T18:38:48.261Z,77.04
2022-12-13T18:41:20.900Z,76.52
2022-12-13T18:43:48.357Z,77.09
2022-12-13T18:46:16.126Z,77.59
2022-12-13T18:48:43.327Z,78.78
2022-12-13T18:51:10.856Z,79.66
2022-12-13T18:53:39.195Z,79.43
2022-12-13T18:56:16.157Z,79.29
2022-12-13T18:58:46.039Z,79.07
2022-12-13T19:01:13.916Z,78.35
2022-12-13T19:03:43.953Z,79.78
2022-12-13T19:06:16.985Z,79.73
2022-12-13T19:08:46.901Z,79.43
2022-12-13T19:11:13.807Z,78.33
2022-12-13T19:13:41.325Z,79.00
2022-12-13T19:16:11.777Z,79.13
2022-12-13T19:18:38.714Z,79.96
2022-12-13T19:21:10.524Z,80.04
2022-12-13T19:23:38.596Z,80.10
2022-12-13T19:26:08.990Z,80.94
2022-12-13T19:28:36.529Z,80.82
2022-12-13T19:31:14.286Z,80.60
2022-12-13T19:33:42.532Z,81.21
2022-12-13T19:36:10.325Z,82.98
2022-12-13T19:38:38.217Z,80.56
2022-12-13T19:41:13.655Z,82.47
2022-12-13T19:43:41.766Z,81.38
2022-12-13T19:46:09.233Z,80.83
2022-12-13T19:48:37.940Z,81.71
2022-12-13T19:51:10.045Z,82.81
2022-12-13T19:53:38.443Z,83.33
2022-12-13T19:56:11.130Z,83.26
2022-12-13T19:58:39.355Z,82.88
2022-12-13T20:01:07.430Z,81.75
2022-12-13T20:03:36.099Z,82.91
2022-12-13T20:06:04.493Z,83.45
2022-12-13T20:08:31.630Z,83.76
2022-12-13T20:11:10.265Z,82.21
2022-12-13T20:13:37.916Z,84.22
2022-12-13T20:16:05.240Z,83.63
2022-12-13T20:18:32.710Z,84.34
2022-12-13T20:21:13.444Z,83.54
2022-12-13T20:23:49.762Z,84.20
2022-12-13T20:26:23.006Z,84.48
2022-12-13T20:28:50.840Z,85.81
2022-12-13T20:31:24.568Z,87.42
2022-12-13T20:33:59.661Z,84.92
2022-12-13T20:36:28.918Z,85.39
2022-12-13T20:38:59.335Z,83.89
2022-12-13T20:41:28.722Z,85.33
2022-12-13T20:43:57.414Z,85.24
2022-12-13T20:46:26.110Z,85.28
2022-12-13T20:48:54.125Z,84.59
2022-12-13T20:51:24.064Z,84.55
2022-12-13T20:53:52.466Z,83.06
2022-12-13T20:56:22.289Z,85.11
2022-12-13T20:58:49.444Z,84.14
2022-12-13T21:01:28.000Z,85.29
2022-12-13T21:03:56.408Z,84.70
2022-12-13T21:06:23.639Z,86.72
2022-12-13T21:08:54.803Z,86.38
2022-12-13T21:11:27.409Z,86.15
2022-12-13T21:14:03.810Z,84.07
2022-12-13T21:16:37.388Z,86.63
2022-12-13T21:19:05.919Z,86.63
2022-12-13T21:21:33.701Z,87.60
2022-12-13T21:24:00.880Z,88.65
2022-12-13T21:26:34.634Z,87.54
2022-12-13T21:29:04.937Z,86.70
2022-12-13T21:31:31.895Z,86.34
2022-12-13T21:34:00.731Z,86.05
2022-12-13T21:36:32.719Z,84.79
2022-12-13T21:39:02.167Z,84.78
2022-12-13T21:41:29.546Z,84.84
2022-12-13T21:43:56.770Z,84.78
2022-12-13T21:46:41.333Z,82.94
2022-12-13T21:49:13.696Z,84.33
2022-12-13T21:51:46.010Z,84.30
2022-12-13T21:54:14.702Z,84.21
2022-12-13T21:57:00.029Z,84.01
2022-12-13T21:59:29.012Z,82.86
2022-12-13T22:02:17.032Z,82.84
2022-12-13T22:04:50.353Z,83.36
2022-12-13T22:07:35.244Z,83.88
2022-12-13T22:10:02.710Z,84.04
2022-12-13T22:12:35.202Z,84.59
2022-12-13T22:15:03.129Z,84.93
2022-12-13T22:17:35.061Z,86.54
2022-12-13T22:20:05.252Z,87.89
2022-12-13T22:22:32.371Z,86.96
2022-12-13T22:24:59.251Z,86.25
2022-12-13T22:27:26.598Z,83.80
2022-12-13T22:29:58.792Z,84.17
2022-12-13T22:32:27.910Z,84.87
2022-12-13T22:34:55.272Z,85.48
2022-12-13T22:37:22.838Z,85.28
2022-12-13T22:39:50.410Z,85.41
2022-12-13T22:42:17.476Z,86.01
2022-12-13T22:44:44.409Z,85.26
2022-12-13T22:47:11.319Z,81.57
2022-12-13T22:49:38.335Z,85.26
2022-12-13T22:52:05.544Z,86.46
2022-12-13T22:54:32.566Z,86.12
2022-12-13T22:56:59.506Z,86.18
2022-12-13T22:59:26.440Z,85.53
2022-12-13T23:02:01.339Z,85.67
2022-12-13T23:04:29.248Z,85.68
2022-12-13T23:06:56.161Z,85.26
2022-12-13T23:09:23.265Z,84.52
2022-12-13T23:12:08.754Z,85.58
2022-12-13T23:14:35.788Z,85.63
2022-12-13T23:17:03.764Z,85.22
2022-12-13T23:19:49.473Z,85.74
2022-12-13T23:22:18.661Z,86.57
2022-12-13T23:24:45.522Z,86.99
2022-12-13T23:27:12.407Z,87.31
2022-12-13T23:29:39.355Z,87.28
2022-12-13T23:32:06.274Z,86.86
2022-12-13T23:34:33.309Z,86.88
2022-12-13T23:37:00.186Z,86.64
2022-12-13T23:39:27.806Z,87.68
2022-12-13T23:41:54.692Z,87.90
2022-12-13T23:44:21.713Z,88.27
2022-12-13T23:46:49.123Z,89.71
2022-12-13T23:49:16.759Z,91.56
2022-12-13T23:51:43.832Z,89.79
2022-12-13T23:54:16.516Z,89.34
2022-12-13T23:56:43.921Z,89.60
2022-12-13T23:59:11.262Z,90.25
